sensor_id;sensor_type;location;lat;lon;timestamp;temperature;humidity
53498;DHT22;39382;47.168;16.008;2023-10-09T00:00:57;11.90;99.90
53498;DHT22;39382;47.168;16.008;2023-10-09T00:03:46;12.00;99.90
53498;DHT22;39382;47.168;16.008;2023-10-09T00:06:21;12.00;99.90
53498;DHT22;39382;47.168;16.008;2023-10-09T00:08:56;12.00;99.90
53498;DHT22;39382;47.168;16.008;2023-10-09T00:11:22;12.00;99.90
53498;DHT22;39382;47.168;16.008;2023-10-09T00:13:52;11.90;99.90
53498;DHT22;39382;47.168;16.008;2023-10-09T00:16:23;12.00;99.90
53498;DHT22;39382;47.168;16.008;2023-10-09T00:19:00;12.00;99.90
53498;DHT22;39382;47.168;16.008;2023-10-09T00:21:43;12.00;99.90
53498;DHT22;39382;47.168;16.008;2023-10-09T00:24:09;12.00;99.90
53498;DHT22;39382;47.168;16.008;2023-10-09T00:26:50;11.90;99.90
53498;DHT22;39382;47.168;16.008;2023-10-09T00:29:17;11.90;99.90
53498;DHT22;39382;47.168;16.008;2023-10-09T00:31:53;12.00;99.90
53498;DHT22;39382;47.168;16.008;2023-10-09T00:34:42;11.90;99.90
53498;DHT22;39382;47.168;16.008;2023-10-09T00:37:11;11.90;99.90
53498;DHT22;39382;47.168;16.008;2023-10-09T00:39:51;11.90;99.90
53498;DHT22;39382;47.168;16.008;2023-10-09T00:42:37;12.10;99.90
53498;DHT22;39382;47.168;16.008;2023-10-09T00:45:04;12.00;99.90
53498;DHT22;39382;47.168;16.008;2023-10-09T00:47:34;12.00;99.90
53498;DHT22;39382;47.168;16.008;2023-10-09T00:50:08;12.00;99.90
53498;DHT22;39382;47.168;16.008;2023-10-09T00:52:42;11.90;99.90
53498;DHT22;39382;47.168;16.008;2023-10-09T00:55:14;12.00;99.90
53498;DHT22;39382;47.168;16.008;2023-10-09T00:58:01;12.00;99.90
53498;DHT22;39382;47.168;16.008;2023-10-09T01:00:30;11.90;99.90
53498;DHT22;39382;47.168;16.008;2023-10-09T01:03:20;11.90;99.90
53498;DHT22;39382;47.168;16.008;2023-10-09T01:05:52;11.90;99.90
53498;DHT22;39382;47.168;16.008;2023-10-09T01:08:40;11.80;99.90
53498;DHT22;39382;47.168;16.008;2023-10-09T01:11:13;11.80;99.90
53498;DHT22;39382;47.168;16.008;2023-10-09T01:13:47;11.80;99.90
53498;DHT22;39382;47.168;16.008;2023-10-09T01:16:13;11.90;99.90
53498;DHT22;39382;47.168;16.008;2023-10-09T01:18:45;11.90;99.90
53498;DHT22;39382;47.168;16.008;2023-10-09T01:21:12;11.90;99.90
53498;DHT22;39382;47.168;16.008;2023-10-09T01:23:44;11.90;99.90
53498;DHT22;39382;47.168;16.008;2023-10-09T01:28:58;11.80;99.90
53498;DHT22;39382;47.168;16.008;2023-10-09T01:31:26;11.70;99.90
53498;DHT22;39382;47.168;16.008;2023-10-09T01:33:55;11.80;99.90
53498;DHT22;39382;47.168;16.008;2023-10-09T01:36:25;11.90;99.90
53498;DHT22;39382;47.168;16.008;2023-10-09T01:38:59;11.80;99.90
53498;DHT22;39382;47.168;16.008;2023-10-09T01:41:25;11.80;99.90
53498;DHT22;39382;47.168;16.008;2023-10-09T01:43:50;11.80;99.90
53498;DHT22;39382;47.168;16.008;2023-10-09T01:46:22;11.80;99.90
53498;DHT22;39382;47.168;16.008;2023-10-09T01:48:48;11.80;99.90
53498;DHT22;39382;47.168;16.008;2023-10-09T01:51:15;11.70;99.90
53498;DHT22;39382;47.168;16.008;2023-10-09T01:53:44;11.80;99.90
53498;DHT22;39382;47.168;16.008;2023-10-09T01:56:13;11.80;99.90
53498;DHT22;39382;47.168;16.008;2023-10-09T01:58:41;11.80;99.90
53498;DHT22;39382;47.168;16.008;2023-10-09T02:01:07;11.90;99.90
53498;DHT22;39382;47.168;16.008;2023-10-09T02:03:34;11.90;99.90
53498;DHT22;39382;47.168;16.008;2023-10-09T02:06:03;11.80;99.90
53498;DHT22;39382;47.168;16.008;2023-10-09T02:08:30;11.90;99.90
53498;DHT22;39382;47.168;16.008;2023-10-09T02:11:00;11.90;99.90
53498;DHT22;39382;47.168;16.008;2023-10-09T02:13:28;11.90;99.90
53498;DHT22;39382;47.168;16.008;2023-10-09T02:16:00;11.80;99.90
53498;DHT22;39382;47.168;16.008;2023-10-09T02:18:42;11.90;99.90
53498;DHT22;39382;47.168;16.008;2023-10-09T02:21:24;11.80;99.90
53498;DHT22;39382;47.168;16.008;2023-10-09T02:24:03;11.70;99.90
53498;DHT22;39382;47.168;16.008;2023-10-09T02:26:35;11.70;99.90
53498;DHT22;39382;47.168;16.008;2023-10-09T02:29:18;11.70;99.90
53498;DHT22;39382;47.168;16.008;2023-10-09T02:31:49;11.70;99.90
53498;DHT22;39382;47.168;16.008;2023-10-09T02:34:18;11.70;99.90
53498;DHT22;39382;47.168;16.008;2023-10-09T02:36:47;11.80;99.90
53498;DHT22;39382;47.168;16.008;2023-10-09T02:39:24;11.70;99.90
53498;DHT22;39382;47.168;16.008;2023-10-09T02:41:53;11.70;99.90
53498;DHT22;39382;47.168;16.008;2023-10-09T02:44:26;11.70;99.90
53498;DHT22;39382;47.168;16.008;2023-10-09T02:46:52;11.60;99.90
53498;DHT22;39382;47.168;16.008;2023-10-09T02:49:24;11.70;99.90
53498;DHT22;39382;47.168;16.008;2023-10-09T02:51:50;11.70;99.90
53498;DHT22;39382;47.168;16.008;2023-10-09T02:54:19;11.70;99.90
53498;DHT22;39382;47.168;16.008;2023-10-09T02:57:00;11.70;99.90
53498;DHT22;39382;47.168;16.008;2023-10-09T02:59:35;11.70;99.90
53498;DHT22;39382;47.168;16.008;2023-10-09T03:02:04;11.70;99.90
53498;DHT22;39382;47.168;16.008;2023-10-09T03:04:29;11.80;99.90
53498;DHT22;39382;47.168;16.008;2023-10-09T03:06:56;11.90;99.90
53498;DHT22;39382;47.168;16.008;2023-10-09T03:09:23;11.80;99.90
53498;DHT22;39382;47.168;16.008;2023-10-09T03:11:54;11.80;99.90
53498;DHT22;39382;47.168;16.008;2023-10-09T03:14:21;11.80;99.90
53498;DHT22;39382;47.168;16.008;2023-10-09T03:16:52;11.80;99.90
53498;DHT22;39382;47.168;16.008;2023-10-09T03:19:18;11.80;99.90
53498;DHT22;39382;47.168;16.008;2023-10-09T03:21:43;11.80;99.90
53498;DHT22;39382;47.168;16.008;2023-10-09T03:24:10;11.70;99.90
53498;DHT22;39382;47.168;16.008;2023-10-09T03:26:37;11.70;99.90
53498;DHT22;39382;47.168;16.008;2023-10-09T03:29:03;11.70;99.90
53498;DHT22;39382;47.168;16.008;2023-10-09T03:31:35;11.60;99.90
53498;DHT22;39382;47.168;16.008;2023-10-09T03:34:02;11.70;99.90
53498;DHT22;39382;47.168;16.008;2023-10-09T03:36:28;11.70;99.90
53498;DHT22;39382;47.168;16.008;2023-10-09T03:38:56;11.70;99.90
53498;DHT22;39382;47.168;16.008;2023-10-09T03:41:23;11.70;99.90
53498;DHT22;39382;47.168;16.008;2023-10-09T03:43:53;11.70;99.90
53498;DHT22;39382;47.168;16.008;2023-10-09T03:46:22;11.70;99.90
53498;DHT22;39382;47.168;16.008;2023-10-09T03:48:58;11.70;99.90
53498;DHT22;39382;47.168;16.008;2023-10-09T03:51:29;11.60;99.90
53498;DHT22;39382;47.168;16.008;2023-10-09T03:53:55;11.60;99.90
53498;DHT22;39382;47.168;16.008;2023-10-09T03:56:21;11.60;99.90
53498;DHT22;39382;47.168;16.008;2023-10-09T03:58:48;11.60;99.90
53498;DHT22;39382;47.168;16.008;2023-10-09T04:03:52;11.50;99.90
53498;DHT22;39382;47.168;16.008;2023-10-09T04:06:24;11.40;99.90
53498;DHT22;39382;47.168;16.008;2023-10-09T04:08:54;11.40;99.90
53498;DHT22;39382;47.168;16.008;2023-10-09T04:11:20;11.30;99.90
53498;DHT22;39382;47.168;16.008;2023-10-09T04:13:49;11.20;99.90
53498;DHT22;39382;47.168;16.008;2023-10-09T04:16:18;11.10;99.90
53498;DHT22;39382;47.168;16.008;2023-10-09T04:18:59;11.00;99.90
53498;DHT22;39382;47.168;16.008;2023-10-09T04:21:31;11.00;99.90
53498;DHT22;39382;47.168;16.008;2023-10-09T04:24:01;10.90;99.90
53498;DHT22;39382;47.168;16.008;2023-10-09T04:26:45;10.80;99.90
53498;DHT22;39382;47.168;16.008;2023-10-09T04:29:12;10.70;99.90
53498;DHT22;39382;47.168;16.008;2023-10-09T04:31:56;10.70;99.90
53498;DHT22;39382;47.168;16.008;2023-10-09T04:34:25;10.60;99.90
53498;DHT22;39382;47.168;16.008;2023-10-09T04:37:01;10.50;99.90
53498;DHT22;39382;47.168;16.008;2023-10-09T04:39:30;10.50;99.90
53498;DHT22;39382;47.168;16.008;2023-10-09T04:41:56;10.50;99.90
53498;DHT22;39382;47.168;16.008;2023-10-09T04:44:41;10.50;99.90
53498;DHT22;39382;47.168;16.008;2023-10-09T04:47:35;10.40;99.90
53498;DHT22;39382;47.168;16.008;2023-10-09T04:50:11;10.40;99.90
53498;DHT22;39382;47.168;16.008;2023-10-09T04:52:38;10.30;99.90
53498;DHT22;39382;47.168;16.008;2023-10-09T04:55:05;10.20;99.90
53498;DHT22;39382;47.168;16.008;2023-10-09T04:57:41;10.20;99.90
53498;DHT22;39382;47.168;16.008;2023-10-09T05:00:07;10.20;99.90
53498;DHT22;39382;47.168;16.008;2023-10-09T05:02:56;10.10;99.90
53498;DHT22;39382;47.168;16.008;2023-10-09T05:05:26;10.00;99.90
53498;DHT22;39382;47.168;16.008;2023-10-09T05:08:12;9.90;99.90
53498;DHT22;39382;47.168;16.008;2023-10-09T05:13:35;9.90;99.90
53498;DHT22;39382;47.168;16.008;2023-10-09T05:16:11;9.90;99.90
53498;DHT22;39382;47.168;16.008;2023-10-09T05:18:55;9.90;99.90
53498;DHT22;39382;47.168;16.008;2023-10-09T05:23:57;10.50;99.90
53498;DHT22;39382;47.168;16.008;2023-10-09T05:26:48;10.30;99.90
53498;DHT22;39382;47.168;16.008;2023-10-09T05:29:21;10.30;99.90
53498;DHT22;39382;47.168;16.008;2023-10-09T05:31:50;10.10;99.90
53498;DHT22;39382;47.168;16.008;2023-10-09T05:34:42;10.00;99.90
53498;DHT22;39382;47.168;16.008;2023-10-09T05:37:27;10.00;99.90
53498;DHT22;39382;47.168;16.008;2023-10-09T05:40:00;9.90;99.90
53498;DHT22;39382;47.168;16.008;2023-10-09T05:42:30;10.00;99.90
53498;DHT22;39382;47.168;16.008;2023-10-09T05:45:05;9.90;99.90
53498;DHT22;39382;47.168;16.008;2023-10-09T05:47:44;9.90;99.90
53498;DHT22;39382;47.168;16.008;2023-10-09T05:50:22;9.90;99.90
53498;DHT22;39382;47.168;16.008;2023-10-09T05:52:49;10.00;99.90
53498;DHT22;39382;47.168;16.008;2023-10-09T05:55:18;10.00;99.90
53498;DHT22;39382;47.168;16.008;2023-10-09T05:58:03;10.00;99.90
53498;DHT22;39382;47.168;16.008;2023-10-09T06:00:28;10.20;99.90
53498;DHT22;39382;47.168;16.008;2023-10-09T06:03:13;10.20;99.90
53498;DHT22;39382;47.168;16.008;2023-10-09T06:05:52;10.30;99.90
53498;DHT22;39382;47.168;16.008;2023-10-09T06:08:25;10.30;99.90
53498;DHT22;39382;47.168;16.008;2023-10-09T06:11:14;10.30;99.90
53498;DHT22;39382;47.168;16.008;2023-10-09T06:14:00;10.40;99.90
53498;DHT22;39382;47.168;16.008;2023-10-09T06:16:35;10.40;99.90
53498;DHT22;39382;47.168;16.008;2023-10-09T06:19:07;10.50;99.90
53498;DHT22;39382;47.168;16.008;2023-10-09T06:21:34;10.60;99.90
53498;DHT22;39382;47.168;16.008;2023-10-09T06:24:07;10.70;99.90
53498;DHT22;39382;47.168;16.008;2023-10-09T06:26:44;10.90;99.90
53498;DHT22;39382;47.168;16.008;2023-10-09T06:29:36;10.90;99.90
53498;DHT22;39382;47.168;16.008;2023-10-09T06:32:07;11.10;99.90
53498;DHT22;39382;47.168;16.008;2023-10-09T06:34:46;11.10;99.90
53498;DHT22;39382;47.168;16.008;2023-10-09T06:37:20;11.30;99.90
53498;DHT22;39382;47.168;16.008;2023-10-09T06:39:48;11.30;99.90
53498;DHT22;39382;47.168;16.008;2023-10-09T06:42:21;11.40;99.90
53498;DHT22;39382;47.168;16.008;2023-10-09T06:45:12;11.50;99.90
53498;DHT22;39382;47.168;16.008;2023-10-09T06:47:49;11.60;99.90
53498;DHT22;39382;47.168;16.008;2023-10-09T06:50:24;11.70;99.90
53498;DHT22;39382;47.168;16.008;2023-10-09T06:52:53;11.90;99.90
53498;DHT22;39382;47.168;16.008;2023-10-09T06:55:23;12.10;99.90
53498;DHT22;39382;47.168;16.008;2023-10-09T06:58:02;12.10;99.90
53498;DHT22;39382;47.168;16.008;2023-10-09T07:00:39;12.10;99.90
53498;DHT22;39382;47.168;16.008;2023-10-09T07:03:33;12.20;99.90
53498;DHT22;39382;47.168;16.008;2023-10-09T07:06:09;12.40;99.90
53498;DHT22;39382;47.168;16.008;2023-10-09T07:08:56;12.40;99.90
53498;DHT22;39382;47.168;16.008;2023-10-09T07:11:34;12.40;99.90
53498;DHT22;39382;47.168;16.008;2023-10-09T07:14:11;12.50;99.90
53498;DHT22;39382;47.168;16.008;2023-10-09T07:17:00;12.60;99.90
53498;DHT22;39382;47.168;16.008;2023-10-09T07:19:30;12.70;99.90
53498;DHT22;39382;47.168;16.008;2023-10-09T07:22:11;12.80;99.90
53498;DHT22;39382;47.168;16.008;2023-10-09T07:24:53;12.90;99.90
53498;DHT22;39382;47.168;16.008;2023-10-09T07:27:27;13.10;99.90
53498;DHT22;39382;47.168;16.008;2023-10-09T07:30:16;13.10;99.90
53498;DHT22;39382;47.168;16.008;2023-10-09T07:33:05;13.30;98.30
53498;DHT22;39382;47.168;16.008;2023-10-09T07:35:33;13.30;98.30
53498;DHT22;39382;47.168;16.008;2023-10-09T07:38:11;13.30;96.90
53498;DHT22;39382;47.168;16.008;2023-10-09T07:40:40;13.40;97.00
53498;DHT22;39382;47.168;16.008;2023-10-09T07:43:27;13.40;96.80
53498;DHT22;39382;47.168;16.008;2023-10-09T07:46:19;13.40;96.20
53498;DHT22;39382;47.168;16.008;2023-10-09T07:49:18;13.40;97.30
53498;DHT22;39382;47.168;16.008;2023-10-09T07:51:51;13.70;95.90
53498;DHT22;39382;47.168;16.008;2023-10-09T07:54:18;13.70;95.40
53498;DHT22;39382;47.168;16.008;2023-10-09T07:56:58;13.60;96.30
53498;DHT22;39382;47.168;16.008;2023-10-09T07:59:34;13.70;96.50
53498;DHT22;39382;47.168;16.008;2023-10-09T08:02:07;13.60;96.70
53498;DHT22;39382;47.168;16.008;2023-10-09T08:04:39;13.60;97.30
53498;DHT22;39382;47.168;16.008;2023-10-09T08:07:14;13.60;97.20
53498;DHT22;39382;47.168;16.008;2023-10-09T08:09:54;13.70;97.20
53498;DHT22;39382;47.168;16.008;2023-10-09T08:12:39;13.80;97.00
53498;DHT22;39382;47.168;16.008;2023-10-09T08:15:24;13.90;96.50
53498;DHT22;39382;47.168;16.008;2023-10-09T08:18:00;14.10;95.90
53498;DHT22;39382;47.168;16.008;2023-10-09T08:20:35;13.90;95.80
53498;DHT22;39382;47.168;16.008;2023-10-09T08:23:19;14.10;95.00
53498;DHT22;39382;47.168;16.008;2023-10-09T08:26:04;14.00;95.60
53498;DHT22;39382;47.168;16.008;2023-10-09T08:28:43;14.20;94.80
53498;DHT22;39382;47.168;16.008;2023-10-09T08:31:11;14.20;94.60
53498;DHT22;39382;47.168;16.008;2023-10-09T08:33:55;14.30;94.10
53498;DHT22;39382;47.168;16.008;2023-10-09T08:36:25;14.50;93.60
53498;DHT22;39382;47.168;16.008;2023-10-09T08:38:55;14.30;93.40
53498;DHT22;39382;47.168;16.008;2023-10-09T08:41:24;14.30;93.90
53498;DHT22;39382;47.168;16.008;2023-10-09T08:43:57;14.50;93.80
53498;DHT22;39382;47.168;16.008;2023-10-09T08:46:24;14.60;93.30
53498;DHT22;39382;47.168;16.008;2023-10-09T08:48:57;14.60;92.70
53498;DHT22;39382;47.168;16.008;2023-10-09T08:51:25;14.60;92.80
53498;DHT22;39382;47.168;16.008;2023-10-09T08:53:52;14.60;93.00
53498;DHT22;39382;47.168;16.008;2023-10-09T08:56:20;14.60;93.10
53498;DHT22;39382;47.168;16.008;2023-10-09T08:58:52;14.70;93.40
53498;DHT22;39382;47.168;16.008;2023-10-09T09:01:19;14.70;93.10
53498;DHT22;39382;47.168;16.008;2023-10-09T09:03:46;14.70;92.70
53498;DHT22;39382;47.168;16.008;2023-10-09T09:06:12;14.90;92.70
53498;DHT22;39382;47.168;16.008;2023-10-09T09:08:40;14.90;92.30
53498;DHT22;39382;47.168;16.008;2023-10-09T09:11:10;15.10;92.10
53498;DHT22;39382;47.168;16.008;2023-10-09T09:14:02;15.20;91.70
53498;DHT22;39382;47.168;16.008;2023-10-09T09:16:32;15.20;92.40
53498;DHT22;39382;47.168;16.008;2023-10-09T09:19:02;15.40;90.90
53498;DHT22;39382;47.168;16.008;2023-10-09T09:21:32;15.40;91.70
53498;DHT22;39382;47.168;16.008;2023-10-09T09:24:06;15.60;90.30
53498;DHT22;39382;47.168;16.008;2023-10-09T09:26:41;15.50;90.00
53498;DHT22;39382;47.168;16.008;2023-10-09T09:29:45;15.50;90.40
53498;DHT22;39382;47.168;16.008;2023-10-09T09:32:29;15.50;89.40
53498;DHT22;39382;47.168;16.008;2023-10-09T09:35:02;15.60;88.00
53498;DHT22;39382;47.168;16.008;2023-10-09T09:37:31;15.60;88.00
53498;DHT22;39382;47.168;16.008;2023-10-09T09:40:06;15.60;89.50
53498;DHT22;39382;47.168;16.008;2023-10-09T09:42:59;15.60;89.70
53498;DHT22;39382;47.168;16.008;2023-10-09T09:45:37;15.80;89.40
53498;DHT22;39382;47.168;16.008;2023-10-09T09:48:04;16.00;86.40
53498;DHT22;39382;47.168;16.008;2023-10-09T09:50:36;16.20;93.90
53498;DHT22;39382;47.168;16.008;2023-10-09T09:53:13;16.60;90.50
53498;DHT22;39382;47.168;16.008;2023-10-09T09:55:52;17.10;92.10
53498;DHT22;39382;47.168;16.008;2023-10-09T09:58:21;17.00;83.70
53498;DHT22;39382;47.168;16.008;2023-10-09T10:00:53;16.90;87.00
53498;DHT22;39382;47.168;16.008;2023-10-09T10:03:31;17.10;84.80
53498;DHT22;39382;47.168;16.008;2023-10-09T10:06:00;17.30;84.20
53498;DHT22;39382;47.168;16.008;2023-10-09T10:08:35;17.30;85.00
53498;DHT22;39382;47.168;16.008;2023-10-09T10:11:01;17.30;81.80
53498;DHT22;39382;47.168;16.008;2023-10-09T10:19:09;17.30;82.70
53498;DHT22;39382;47.168;16.008;2023-10-09T10:21:41;17.30;80.10
53498;DHT22;39382;47.168;16.008;2023-10-09T10:27:28;16.80;81.10
53498;DHT22;39382;47.168;16.008;2023-10-09T10:32:57;16.60;83.10
53498;DHT22;39382;47.168;16.008;2023-10-09T10:35:25;16.40;84.40
53498;DHT22;39382;47.168;16.008;2023-10-09T10:38:28;16.40;83.60
53498;DHT22;39382;47.168;16.008;2023-10-09T10:41:13;16.40;84.00
53498;DHT22;39382;47.168;16.008;2023-10-09T10:43:42;16.10;84.60
53498;DHT22;39382;47.168;16.008;2023-10-09T10:46:15;16.30;84.80
53498;DHT22;39382;47.168;16.008;2023-10-09T10:48:58;16.20;84.80
53498;DHT22;39382;47.168;16.008;2023-10-09T10:51:34;16.40;85.30
53498;DHT22;39382;47.168;16.008;2023-10-09T10:54:04;16.50;84.10
53498;DHT22;39382;47.168;16.008;2023-10-09T10:56:49;16.60;83.30
53498;DHT22;39382;47.168;16.008;2023-10-09T10:59:17;16.70;83.30
53498;DHT22;39382;47.168;16.008;2023-10-09T11:01:52;16.70;84.30
53498;DHT22;39382;47.168;16.008;2023-10-09T11:04:24;16.80;84.20
53498;DHT22;39382;47.168;16.008;2023-10-09T11:07:09;16.90;85.20
53498;DHT22;39382;47.168;16.008;2023-10-09T11:09:52;16.80;84.30
53498;DHT22;39382;47.168;16.008;2023-10-09T11:15:12;17.00;83.60
53498;DHT22;39382;47.168;16.008;2023-10-09T11:18:09;17.20;83.10
53498;DHT22;39382;47.168;16.008;2023-10-09T11:20:48;17.40;82.50
53498;DHT22;39382;47.168;16.008;2023-10-09T11:23:30;17.60;81.50
53498;DHT22;39382;47.168;16.008;2023-10-09T11:25:59;17.50;81.80
53498;DHT22;39382;47.168;16.008;2023-10-09T11:28:43;17.40;82.80
53498;DHT22;39382;47.168;16.008;2023-10-09T11:31:14;17.60;82.40
53498;DHT22;39382;47.168;16.008;2023-10-09T11:33:52;17.70;80.90
53498;DHT22;39382;47.168;16.008;2023-10-09T11:36:22;17.80;81.30
53498;DHT22;39382;47.168;16.008;2023-10-09T11:39:01;18.00;81.10
53498;DHT22;39382;47.168;16.008;2023-10-09T11:41:43;18.20;79.90
53498;DHT22;39382;47.168;16.008;2023-10-09T11:44:10;18.30;79.20
53498;DHT22;39382;47.168;16.008;2023-10-09T11:46:58;18.30;79.20
53498;DHT22;39382;47.168;16.008;2023-10-09T11:49:55;18.50;79.20
53498;DHT22;39382;47.168;16.008;2023-10-09T11:52:32;18.60;77.80
53498;DHT22;39382;47.168;16.008;2023-10-09T11:55:02;18.60;80.70
53498;DHT22;39382;47.168;16.008;2023-10-09T11:57:28;18.50;78.00
53498;DHT22;39382;47.168;16.008;2023-10-09T11:59:59;18.50;78.70
53498;DHT22;39382;47.168;16.008;2023-10-09T12:02:36;18.50;78.40
53498;DHT22;39382;47.168;16.008;2023-10-09T12:05:10;18.40;79.90
53498;DHT22;39382;47.168;16.008;2023-10-09T12:07:45;18.60;79.30
53498;DHT22;39382;47.168;16.008;2023-10-09T12:10:11;18.50;78.50
53498;DHT22;39382;47.168;16.008;2023-10-09T12:12:39;18.70;78.70
53498;DHT22;39382;47.168;16.008;2023-10-09T12:15:06;18.60;77.30
53498;DHT22;39382;47.168;16.008;2023-10-09T12:17:32;18.70;79.40
53498;DHT22;39382;47.168;16.008;2023-10-09T12:19:58;18.60;77.90
53498;DHT22;39382;47.168;16.008;2023-10-09T12:22:24;18.60;78.20
53498;DHT22;39382;47.168;16.008;2023-10-09T12:24:52;18.80;79.30
53498;DHT22;39382;47.168;16.008;2023-10-09T12:27:18;19.20;79.10
53498;DHT22;39382;47.168;16.008;2023-10-09T12:29:46;19.10;77.30
53498;DHT22;39382;47.168;16.008;2023-10-09T12:32:12;19.10;76.50
53498;DHT22;39382;47.168;16.008;2023-10-09T12:34:39;19.20;77.60
53498;DHT22;39382;47.168;16.008;2023-10-09T12:37:05;19.10;74.90
53498;DHT22;39382;47.168;16.008;2023-10-09T12:39:31;19.10;75.40
53498;DHT22;39382;47.168;16.008;2023-10-09T12:42:05;19.10;74.90
53498;DHT22;39382;47.168;16.008;2023-10-09T12:44:34;18.80;77.20
53498;DHT22;39382;47.168;16.008;2023-10-09T12:47:10;18.70;78.40
53498;DHT22;39382;47.168;16.008;2023-10-09T12:49:38;18.60;78.10
53498;DHT22;39382;47.168;16.008;2023-10-09T12:52:07;18.70;80.70
53498;DHT22;39382;47.168;16.008;2023-10-09T12:54:43;18.70;79.90
53498;DHT22;39382;47.168;16.008;2023-10-09T12:57:12;18.80;80.20
53498;DHT22;39382;47.168;16.008;2023-10-09T12:59:40;18.80;83.70
53498;DHT22;39382;47.168;16.008;2023-10-09T13:02:12;18.80;80.00
53498;DHT22;39382;47.168;16.008;2023-10-09T13:04:38;18.80;80.80
53498;DHT22;39382;47.168;16.008;2023-10-09T13:07:07;18.70;81.10
53498;DHT22;39382;47.168;16.008;2023-10-09T13:09:33;18.70;81.40
53498;DHT22;39382;47.168;16.008;2023-10-09T13:12:22;18.70;82.10
53498;DHT22;39382;47.168;16.008;2023-10-09T13:14:48;18.70;82.00
53498;DHT22;39382;47.168;16.008;2023-10-09T13:17:15;18.60;81.50
53498;DHT22;39382;47.168;16.008;2023-10-09T13:19:40;18.60;82.00
53498;DHT22;39382;47.168;16.008;2023-10-09T13:22:06;18.70;82.20
53498;DHT22;39382;47.168;16.008;2023-10-09T13:24:38;18.60;81.80
53498;DHT22;39382;47.168;16.008;2023-10-09T13:27:04;18.60;82.00
53498;DHT22;39382;47.168;16.008;2023-10-09T13:29:30;18.60;81.90
53498;DHT22;39382;47.168;16.008;2023-10-09T13:31:59;18.50;82.70
53498;DHT22;39382;47.168;16.008;2023-10-09T13:34:28;18.50;82.40
53498;DHT22;39382;47.168;16.008;2023-10-09T13:36:54;18.70;84.80
53498;DHT22;39382;47.168;16.008;2023-10-09T13:39:21;18.50;82.50
53498;DHT22;39382;47.168;16.008;2023-10-09T13:41:59;18.40;84.20
53498;DHT22;39382;47.168;16.008;2023-10-09T13:44:30;18.40;83.30
53498;DHT22;39382;47.168;16.008;2023-10-09T13:46:58;18.30;83.70
53498;DHT22;39382;47.168;16.008;2023-10-09T13:49:24;18.40;84.50
53498;DHT22;39382;47.168;16.008;2023-10-09T13:51:55;18.30;84.50
53498;DHT22;39382;47.168;16.008;2023-10-09T13:54:22;18.20;85.20
53498;DHT22;39382;47.168;16.008;2023-10-09T13:57:08;18.20;85.00
53498;DHT22;39382;47.168;16.008;2023-10-09T13:59:36;18.20;84.60
53498;DHT22;39382;47.168;16.008;2023-10-09T14:02:03;18.20;84.90
53498;DHT22;39382;47.168;16.008;2023-10-09T14:04:35;18.20;86.90
53498;DHT22;39382;47.168;16.008;2023-10-09T14:07:01;18.20;86.50
53498;DHT22;39382;47.168;16.008;2023-10-09T14:09:30;18.10;85.30
53498;DHT22;39382;47.168;16.008;2023-10-09T14:12:01;18.10;85.40
53498;DHT22;39382;47.168;16.008;2023-10-09T14:14:39;18.10;86.60
53498;DHT22;39382;47.168;16.008;2023-10-09T14:17:19;18.00;88.00
53498;DHT22;39382;47.168;16.008;2023-10-09T14:19:49;18.00;87.20
53498;DHT22;39382;47.168;16.008;2023-10-09T14:22:23;18.00;90.20
53498;DHT22;39382;47.168;16.008;2023-10-09T14:24:54;18.20;92.20
53498;DHT22;39382;47.168;16.008;2023-10-09T14:27:25;18.30;90.40
53498;DHT22;39382;47.168;16.008;2023-10-09T14:30:00;18.30;90.40
53498;DHT22;39382;47.168;16.008;2023-10-09T14:32:26;18.30;91.00
53498;DHT22;39382;47.168;16.008;2023-10-09T14:34:59;18.40;90.90
53498;DHT22;39382;47.168;16.008;2023-10-09T14:37:28;18.40;90.80
53498;DHT22;39382;47.168;16.008;2023-10-09T14:39:55;18.40;90.60
53498;DHT22;39382;47.168;16.008;2023-10-09T14:42:21;18.30;90.20
53498;DHT22;39382;47.168;16.008;2023-10-09T14:44:49;18.20;90.70
53498;DHT22;39382;47.168;16.008;2023-10-09T14:47:15;18.20;90.40
53498;DHT22;39382;47.168;16.008;2023-10-09T14:49:41;18.00;90.10
53498;DHT22;39382;47.168;16.008;2023-10-09T14:52:12;17.80;90.30
53498;DHT22;39382;47.168;16.008;2023-10-09T14:54:42;17.60;91.20
53498;DHT22;39382;47.168;16.008;2023-10-09T14:57:08;17.50;91.50
53498;DHT22;39382;47.168;16.008;2023-10-09T14:59:37;17.60;91.70
53498;DHT22;39382;47.168;16.008;2023-10-09T15:02:03;17.50;91.80
53498;DHT22;39382;47.168;16.008;2023-10-09T15:04:31;17.30;92.00
53498;DHT22;39382;47.168;16.008;2023-10-09T15:06:57;17.20;92.40
53498;DHT22;39382;47.168;16.008;2023-10-09T15:09:23;17.30;92.80
53498;DHT22;39382;47.168;16.008;2023-10-09T15:11:51;17.10;93.50
53498;DHT22;39382;47.168;16.008;2023-10-09T15:14:18;16.90;93.70
53498;DHT22;39382;47.168;16.008;2023-10-09T15:16:47;16.90;93.80
53498;DHT22;39382;47.168;16.008;2023-10-09T15:19:13;16.90;94.40
53498;DHT22;39382;47.168;16.008;2023-10-09T15:21:40;16.90;94.80
53498;DHT22;39382;47.168;16.008;2023-10-09T15:24:16;16.90;94.80
53498;DHT22;39382;47.168;16.008;2023-10-09T15:26:47;16.80;95.40
53498;DHT22;39382;47.168;16.008;2023-10-09T15:29:19;16.70;95.80
53498;DHT22;39382;47.168;16.008;2023-10-09T15:31:51;16.60;96.20
53498;DHT22;39382;47.168;16.008;2023-10-09T15:34:17;16.50;96.80
53498;DHT22;39382;47.168;16.008;2023-10-09T15:36:45;16.50;97.70
53498;DHT22;39382;47.168;16.008;2023-10-09T15:39:14;16.30;99.60
53498;DHT22;39382;47.168;16.008;2023-10-09T15:41:45;16.20;99.90
53498;DHT22;39382;47.168;16.008;2023-10-09T15:44:11;16.20;99.90
53498;DHT22;39382;47.168;16.008;2023-10-09T15:46:39;16.10;99.90
53498;DHT22;39382;47.168;16.008;2023-10-09T15:49:04;16.10;99.90
53498;DHT22;39382;47.168;16.008;2023-10-09T15:51:32;16.00;99.90
53498;DHT22;39382;47.168;16.008;2023-10-09T15:53:58;16.00;99.90
53498;DHT22;39382;47.168;16.008;2023-10-09T15:56:26;16.00;99.90
53498;DHT22;39382;47.168;16.008;2023-10-09T15:58:52;15.80;99.90
53498;DHT22;39382;47.168;16.008;2023-10-09T16:01:20;15.70;99.90
53498;DHT22;39382;47.168;16.008;2023-10-09T16:03:46;15.50;99.90
53498;DHT22;39382;47.168;16.008;2023-10-09T16:06:14;15.50;99.90
53498;DHT22;39382;47.168;16.008;2023-10-09T16:08:43;15.60;99.90
53498;DHT22;39382;47.168;16.008;2023-10-09T16:11:19;15.60;99.90
53498;DHT22;39382;47.168;16.008;2023-10-09T16:13:49;15.40;99.90
53498;DHT22;39382;47.168;16.008;2023-10-09T16:16:23;15.40;99.90
53498;DHT22;39382;47.168;16.008;2023-10-09T16:18:50;15.40;99.90